Impacts METAR Board
IDs:

KCLE - Cleveland/Hopkins In, OH, US

Updated at: 1700 UTC 26 Apr 2018
Potential Impact None Slight Moderate High
Time 26/05Z 26/06Z 26/07Z 26/08Z 26/09Z 26/10Z 26/11Z 26/12Z 26/13Z 26/14Z 26/15Z 26/16Z 26/17Z
Temp39 38 35 36 37 35 34 37 43 46 50 51 53
Dewpt34 34 33 34 34 33 33 35 37 36 37 36 36
Altim29.97 29.96 29.94 29.95 29.96 29.95 29.96 29.97 29.98 29.98 29.98 29.98 29.98
VIS10 10 10 10 10 10 10 10 10 10 10 10 10
CIG-- -- -- -- -- -- -- -- -- -- -- -- --
CoverFEWFEWFEWFEWSCTCLRFEWFEWFEWFEWFEWFEWFEW
FltCatVFRVFRVFRVFRVFRVFRVFRVFRVFRVFRVFRVFRVFR
WX--------------------------
WDir10025000170021029020000
WSpd4 0 4 0 0 3 0 3 3 3 0 4 5
WGst-- -- -- -- -- -- -- -- -- -- -- -- --
Raw hourly METARs
KCLE 260451Z 01004KT 10SM FEW012 FEW040 04/01 A2997 RMK AO2 SLP153 T00390011 401170039 $
KCLE 260551Z 00000KT 10SM FEW014 FEW034 03/01 A2996 RMK AO2 SLP150 T00330011 10083 20028 56010 $
KCLE 260651Z 25004KT 10SM FEW035 02/01 A2994 RMK AO2 SLP144 T00170006 $
KCLE 260751Z 00000KT 10SM FEW014 02/01 A2995 RMK AO2 SLP146 T00220011 $
KCLE 260851Z 00000KT 10SM SCT013 03/01 A2996 RMK AO2 SLP147 T00280011 55002 $
KCLE 260951Z 17003KT 10SM CLR 02/01 A2995 RMK AO2 SLP147 T00170006 $
KCLE 261051Z 00000KT 10SM FEW250 01/01 A2996 RMK AO2 SLP151 T00110006 $
KCLE 261151Z 21003KT 10SM FEW250 03/02 A2997 RMK AO2 SLP154 70001 T00280017 10039 20011 53006 $
KCLE 261251Z 29003KT 10SM FEW250 06/03 A2998 RMK AO2 SLP155 T00610028 $
KCLE 261351Z 02003KT 10SM FEW040 08/02 A2998 RMK AO2 SLP155 T00780022 $
KCLE 261451Z 00000KT 10SM FEW040 10/03 A2998 RMK AO2 SLP154 T01000028 51002 $
KCLE 261551Z VRB04KT 10SM FEW040 11/02 A2998 RMK AO2 SLP155 T01060022 $
KCLE 261651Z VRB05KT 10SM FEW040 12/02 A2998 RMK AO2 SLP154 T01170022 $



Page loaded:  17:02 UTC  |   10:02 AM Pacific  |   11:02 AM Mountain  |   12:02 PM Central  |   01:02 PM Eastern

 

ADVISORIES

FORECASTS

FORECASTS

OBSERVATIONS

USER TOOLS

ABOUT US